createdAt,value
2019-06-01T00:02:21.210Z,15.33
2019-06-01T00:04:54.396Z,12.97
2019-06-01T00:07:28.099Z,15.33
2019-06-01T00:10:00.886Z,15.07
2019-06-01T00:12:32.876Z,15.80
2019-06-01T00:15:06.276Z,12.40
2019-06-01T00:17:39.634Z,13.93
2019-06-01T00:20:11.911Z,8.90
2019-06-01T00:22:43.568Z,12.00
2019-06-01T00:25:16.250Z,9.87
2019-06-01T00:27:52.885Z,7.03
2019-06-01T00:30:27.296Z,9.00
2019-06-01T00:32:58.275Z,11.40
2019-06-01T00:35:29.728Z,10.27
2019-06-01T00:38:01.585Z,11.53
2019-06-01T00:40:35.661Z,12.13
2019-06-01T00:43:08.171Z,10.10
2019-06-01T00:45:42.332Z,12.37
2019-06-01T00:48:15.688Z,11.30
2019-06-01T00:50:49.133Z,15.77
2019-06-01T00:53:20.948Z,12.83
2019-06-01T00:55:53.659Z,15.47
2019-06-01T00:58:25.170Z,15.00
2019-06-01T01:01:00.004Z,13.33
2019-06-01T01:03:31.865Z,10.70
2019-06-01T01:06:03.719Z,18.00
2019-06-01T01:08:38.297Z,20.37
2019-06-01T01:11:10.106Z,27.00
2019-06-01T01:13:41.842Z,24.03
2019-06-01T01:16:16.489Z,27.33
2019-06-01T01:18:51.742Z,29.07
2019-06-01T01:21:23.381Z,36.70
2019-06-01T01:23:56.859Z,39.60
2019-06-01T01:26:30.268Z,53.83
2019-06-01T01:29:04.903Z,46.50
2019-06-01T01:31:39.427Z,40.00
2019-06-01T01:34:11.399Z,48.90
2019-06-01T01:36:44.690Z,36.13
2019-06-01T01:39:16.335Z,45.07
2019-06-01T01:41:50.550Z,46.30
2019-06-01T01:44:23.436Z,40.73
2019-06-01T01:47:01.151Z,39.47
2019-06-01T01:49:34.232Z,46.63
2019-06-01T01:52:06.086Z,40.00
2019-06-01T01:54:41.530Z,44.80
2019-06-01T01:57:14.110Z,39.30
2019-06-01T01:59:48.013Z,40.67
2019-06-01T02:02:21.930Z,41.60
2019-06-01T02:04:57.841Z,44.23
2019-06-01T02:07:30.760Z,51.80
2019-06-01T02:10:07.163Z,48.17
2019-06-01T02:12:40.736Z,57.80
2019-06-01T02:15:15.873Z,58.33
2019-06-01T02:17:49.830Z,67.13
2019-06-01T02:20:21.980Z,64.10
2019-06-01T02:22:54.693Z,65.83
2019-06-01T02:25:27.819Z,56.00
2019-06-01T02:28:01.147Z,55.23
2019-06-01T02:30:34.612Z,53.13
2019-06-01T02:33:09.537Z,55.97
2019-06-01T02:35:42.423Z,54.60
2019-06-01T02:38:15.200Z,65.30
2019-06-01T02:40:48.146Z,59.57
2019-06-01T02:43:20.563Z,66.13
2019-06-01T02:45:52.831Z,67.80
2019-06-01T02:48:25.937Z,59.07
2019-06-01T02:50:59.779Z,67.87
2019-06-01T02:53:32.508Z,58.37
2019-06-01T02:56:07.045Z,48.07
2019-06-01T02:58:41.360Z,45.50
2019-06-01T03:01:17.099Z,49.20
2019-06-01T03:03:50.186Z,54.43
2019-06-01T03:06:23.379Z,48.57
2019-06-01T03:08:58.111Z,46.43
2019-06-01T03:11:32.942Z,47.80
2019-06-01T03:14:06.946Z,40.27
2019-06-01T03:16:43.333Z,34.00
2019-06-01T03:19:18.580Z,35.70
2019-06-01T03:21:50.519Z,41.47
2019-06-01T03:24:29.626Z,35.77
2019-06-01T03:27:04.674Z,32.63
2019-06-01T03:29:39.946Z,37.20
2019-06-01T03:32:29.818Z,41.13
2019-06-01T03:34:45.797Z,26.07
2019-06-01T03:37:17.750Z,26.77
2019-06-01T03:39:49.787Z,21.33
2019-06-01T03:42:22.599Z,21.57
2019-06-01T03:44:54.361Z,21.57
2019-06-01T03:47:26.216Z,16.10
2019-06-01T03:49:57.920Z,15.97
2019-06-01T03:52:31.110Z,22.47
2019-06-01T03:55:03.662Z,15.50
2019-06-01T03:57:36.217Z,23.27
2019-06-01T04:00:09.391Z,19.50
2019-06-01T04:02:41.346Z,20.40
2019-06-01T04:05:13.028Z,19.27
2019-06-01T04:07:44.788Z,22.27
2019-06-01T04:10:16.751Z,22.00
2019-06-01T04:12:48.631Z,18.33
2019-06-01T04:15:21.304Z,17.10
2019-06-01T04:17:54.891Z,18.17
2019-06-01T04:20:29.513Z,21.93
2019-06-01T04:23:02.132Z,20.30
2019-06-01T04:25:34.974Z,20.47
2019-06-01T04:28:08.266Z,21.73
2019-06-01T04:30:40.231Z,16.80
2019-06-01T04:33:13.246Z,20.77
2019-06-01T04:35:46.925Z,18.20
2019-06-01T04:38:20.212Z,19.42
2019-06-01T04:40:52.380Z,30.55
2019-06-01T04:43:26.294Z,17.10
2019-06-01T04:45:59.587Z,17.27
2019-06-01T04:48:31.356Z,21.30
2019-06-01T04:51:04.737Z,17.65
2019-06-01T04:53:36.609Z,22.50
2019-06-01T04:56:11.039Z,23.02
2019-06-01T04:58:44.115Z,29.98
2019-06-01T05:01:16.688Z,18.52
2019-06-01T05:03:51.160Z,23.95
2019-06-01T05:06:27.481Z,25.88
2019-06-01T05:09:01.996Z,20.62
2019-06-01T05:11:34.364Z,20.48
2019-06-01T05:14:07.531Z,25.02
2019-06-01T05:16:39.933Z,27.48
2019-06-01T05:19:16.741Z,18.32
2019-06-01T05:21:49.489Z,21.85
2019-06-01T05:24:22.471Z,19.57
2019-06-01T05:26:55.153Z,21.45
2019-06-01T05:29:27.322Z,18.02
2019-06-01T05:32:01.733Z,19.57
2019-06-01T05:34:36.632Z,17.42
2019-06-01T05:37:08.529Z,16.95
2019-06-01T05:39:41.325Z,17.23
2019-06-01T05:42:14.680Z,23.45
2019-06-01T05:44:49.441Z,19.17
2019-06-01T05:47:22.445Z,22.05
2019-06-01T05:49:54.693Z,14.20
2019-06-01T05:52:26.965Z,14.95
2019-06-01T05:54:59.540Z,16.80
2019-06-01T05:57:32.330Z,19.57
2019-06-01T06:00:10.999Z,16.73
2019-06-01T06:02:45.063Z,22.82
2019-06-01T06:05:18.734Z,22.67
2019-06-01T06:07:51.258Z,18.20
2019-06-01T06:10:24.793Z,19.73
2019-06-01T06:12:59.466Z,14.35
2019-06-01T06:15:39.376Z,20.27
2019-06-01T06:18:11.728Z,19.30
2019-06-01T06:20:44.006Z,12.40
2019-06-01T06:23:16.452Z,20.60
2019-06-01T06:25:49.109Z,18.25
2019-06-01T06:28:22.863Z,18.35
2019-06-01T06:30:55.324Z,16.73
2019-06-01T06:33:28.194Z,18.10
2019-06-01T06:36:03.827Z,15.53
2019-06-01T06:38:36.397Z,12.80
2019-06-01T06:41:09.270Z,20.32
2019-06-01T06:43:41.665Z,16.87
2019-06-01T06:46:14.533Z,16.55
2019-06-01T06:48:48.032Z,18.00
2019-06-01T06:51:24.042Z,13.95
2019-06-01T06:53:56.765Z,15.78
2019-06-01T06:56:29.959Z,11.78
2019-06-01T06:59:02.348Z,17.52
2019-06-01T07:01:34.815Z,11.40
2019-06-01T07:04:13.016Z,15.68
2019-06-01T07:06:44.058Z,11.10
2019-06-01T07:09:16.227Z,15.80
2019-06-01T07:11:49.118Z,10.05
2019-06-01T07:14:23.521Z,12.33
2019-06-01T07:16:55.595Z,12.55
2019-06-01T07:19:28.008Z,11.05
2019-06-01T07:22:02.959Z,14.83
2019-06-01T07:24:35.505Z,13.40
2019-06-01T07:27:07.366Z,16.87
2019-06-01T07:29:39.711Z,13.53
2019-06-01T07:32:12.729Z,18.90
2019-06-01T07:34:47.708Z,21.12
2019-06-01T07:37:24.925Z,17.20
2019-06-01T07:39:58.665Z,17.80
2019-06-01T07:42:30.137Z,14.00
2019-06-01T07:45:04.584Z,15.50
2019-06-01T07:47:38.047Z,20.10
2019-06-01T07:50:10.629Z,23.00
2019-06-01T07:52:43.689Z,23.52
2019-06-01T07:55:15.735Z,20.43
2019-06-01T07:57:47.372Z,19.40
2019-06-01T08:00:22.957Z,17.95
2019-06-01T08:02:56.459Z,21.42
2019-06-01T08:05:32.351Z,14.70
2019-06-01T08:08:05.668Z,24.55
2019-06-01T08:10:39.564Z,18.55
2019-06-01T08:13:19.748Z,14.68
2019-06-01T08:15:53.553Z,17.32
2019-06-01T08:18:26.084Z,12.37
2019-06-01T08:21:00.607Z,14.18
2019-06-01T08:23:32.666Z,11.20
2019-06-01T08:26:04.778Z,14.30
2019-06-01T08:28:36.501Z,12.73
2019-06-01T08:31:08.585Z,18.12
2019-06-01T08:33:41.870Z,14.35
2019-06-01T08:36:13.951Z,7.33
2019-06-01T08:38:45.888Z,7.97
2019-06-01T08:41:17.761Z,8.30
2019-06-01T08:43:49.701Z,8.60
2019-06-01T08:46:21.557Z,13.13
2019-06-01T08:48:53.545Z,10.43
2019-06-01T08:51:28.273Z,7.25
2019-06-01T08:54:00.252Z,8.03
2019-06-01T08:56:32.316Z,6.22
2019-06-01T08:59:04.965Z,8.43
2019-06-01T09:01:37.272Z,4.10
2019-06-01T09:04:10.043Z,4.28
2019-06-01T09:06:43.726Z,7.22
2019-06-01T09:09:16.120Z,4.40
2019-06-01T09:11:48.216Z,6.70
2019-06-01T09:14:20.801Z,14.47
2019-06-01T09:16:53.203Z,9.68
2019-06-01T09:19:27.404Z,13.40
2019-06-01T09:21:59.448Z,11.57
2019-06-01T09:24:31.898Z,11.60
2019-06-01T09:27:04.094Z,6.33
2019-06-01T09:29:36.270Z,11.43
2019-06-01T09:32:11.403Z,11.03
2019-06-01T09:34:43.608Z,12.78
2019-06-01T09:37:16.607Z,7.80
2019-06-01T09:39:47.947Z,12.28
2019-06-01T09:42:19.312Z,11.57
2019-06-01T09:44:50.851Z,11.85
2019-06-01T09:47:23.487Z,7.78
2019-06-01T09:49:55.338Z,9.08
2019-06-01T09:52:27.535Z,5.53
2019-06-01T09:54:59.946Z,8.13
2019-06-01T09:57:32.428Z,12.25
2019-06-01T10:00:08.006Z,11.73
2019-06-01T10:02:40.058Z,8.15
2019-06-01T10:05:12.333Z,7.78
2019-06-01T10:07:44.278Z,9.28
2019-06-01T10:10:19.548Z,8.65
2019-06-01T10:12:50.965Z,12.15
2019-06-01T10:15:23.434Z,8.78
2019-06-01T10:17:54.793Z,9.28
2019-06-01T10:20:43.222Z,10.18
2019-06-01T10:23:16.378Z,9.48
2019-06-01T10:25:48.284Z,9.80
2019-06-01T10:28:19.649Z,11.38
2019-06-01T10:30:51.671Z,6.97
2019-06-01T10:33:23.736Z,10.40
2019-06-01T10:35:54.929Z,8.78
2019-06-01T10:38:27.068Z,12.50
2019-06-01T10:40:59.265Z,8.25
2019-06-01T10:43:31.492Z,5.83
2019-06-01T10:46:03.530Z,5.85
2019-06-01T10:48:36.458Z,8.05
2019-06-01T10:51:11.994Z,7.10
2019-06-01T10:53:46.395Z,7.80
2019-06-01T10:56:18.425Z,11.22
2019-06-01T10:58:59.936Z,8.10
2019-06-01T11:01:24.800Z,8.30
2019-06-01T11:03:58.553Z,11.30
2019-06-01T11:06:40.196Z,8.05
2019-06-01T11:09:05.722Z,5.75
2019-06-01T11:11:38.765Z,7.17
2019-06-01T11:14:11.484Z,6.58
2019-06-01T11:16:44.225Z,7.78
2019-06-01T11:19:16.644Z,9.25
2019-06-01T11:21:48.597Z,9.60
2019-06-01T11:24:20.680Z,9.25
2019-06-01T11:26:52.688Z,7.92
2019-06-01T11:29:25.762Z,6.25
2019-06-01T11:31:59.461Z,6.78
2019-06-01T11:34:31.738Z,12.80
2019-06-01T11:37:05.600Z,8.53
2019-06-01T11:39:38.464Z,14.80
2019-06-01T11:42:12.352Z,12.00
2019-06-01T11:44:45.839Z,9.13
2019-06-01T11:47:18.438Z,5.97
2019-06-01T11:49:50.527Z,10.40
2019-06-01T11:52:23.056Z,10.23
2019-06-01T11:54:55.055Z,8.38
2019-06-01T11:57:27.657Z,12.35
2019-06-01T12:00:00.039Z,7.00
2019-06-01T12:02:33.062Z,6.62
2019-06-01T12:05:07.164Z,7.60
2019-06-01T12:07:39.856Z,4.90
2019-06-01T12:10:12.866Z,11.10
2019-06-01T12:12:44.879Z,9.85
2019-06-01T12:15:18.799Z,9.30
2019-06-01T12:17:50.874Z,8.43
2019-06-01T12:20:24.373Z,6.15
2019-06-01T12:22:56.352Z,7.65
2019-06-01T12:25:28.303Z,12.05
2019-06-01T12:28:01.608Z,8.75
2019-06-01T12:30:34.682Z,7.33
2019-06-01T12:33:06.069Z,8.68
2019-06-01T12:35:38.060Z,14.65
2019-06-01T12:38:14.820Z,9.63
2019-06-01T12:40:48.938Z,9.90
2019-06-01T12:43:20.900Z,12.00
2019-06-01T12:46:07.000Z,11.40
2019-06-01T12:48:28.535Z,7.90
2019-06-01T12:51:00.630Z,13.20
2019-06-01T12:53:32.941Z,17.52
2019-06-01T12:56:05.088Z,10.18
2019-06-01T12:58:38.150Z,6.00
2019-06-01T13:01:10.209Z,8.53
2019-06-01T13:03:43.134Z,9.28
2019-06-01T13:06:15.267Z,5.30
2019-06-01T13:08:47.509Z,8.80
2019-06-01T13:11:19.533Z,8.25
2019-06-01T13:13:51.736Z,12.10
2019-06-01T13:16:24.040Z,11.85
2019-06-01T13:18:56.067Z,8.05
2019-06-01T13:21:30.864Z,5.70
2019-06-01T13:24:04.851Z,13.08
2019-06-01T13:26:38.966Z,7.30
2019-06-01T13:29:10.991Z,9.05
2019-06-01T13:31:44.398Z,6.60
2019-06-01T13:34:16.518Z,13.00
2019-06-01T13:36:49.036Z,12.03
2019-06-01T13:39:23.542Z,7.12
2019-06-01T13:41:55.593Z,13.30
2019-06-01T13:44:27.785Z,7.72
2019-06-01T13:47:01.394Z,13.48
2019-06-01T13:49:34.160Z,11.35
2019-06-01T13:52:06.184Z,7.33
2019-06-01T13:54:40.194Z,7.12
2019-06-01T13:57:12.440Z,5.92
2019-06-01T13:59:44.698Z,9.43
2019-06-01T14:02:16.594Z,6.80
2019-06-01T14:04:49.790Z,7.80
2019-06-01T14:07:21.822Z,16.73
2019-06-01T14:09:53.851Z,8.58
2019-06-01T14:12:27.437Z,9.33
2019-06-01T14:15:01.332Z,6.90
2019-06-01T14:17:33.962Z,7.65
2019-06-01T14:20:08.493Z,9.93
2019-06-01T14:22:43.479Z,6.40
2019-06-01T14:25:15.851Z,7.03
2019-06-01T14:27:48.303Z,11.28
2019-06-01T14:30:24.002Z,9.25
2019-06-01T14:32:56.899Z,12.65
2019-06-01T14:35:29.174Z,12.50
2019-06-01T14:38:03.059Z,8.05
2019-06-01T14:40:35.708Z,8.00
2019-06-01T14:43:08.008Z,4.97
2019-06-01T14:45:42.665Z,9.55
2019-06-01T14:48:14.719Z,7.67
2019-06-01T14:50:47.536Z,11.50
2019-06-01T14:53:19.515Z,9.90
2019-06-01T14:55:51.774Z,10.43
2019-06-01T14:58:23.391Z,14.55
2019-06-01T15:00:56.588Z,9.33
2019-06-01T15:03:28.158Z,14.10
2019-06-01T15:06:03.317Z,9.63
2019-06-01T15:08:34.767Z,9.00
2019-06-01T15:11:06.718Z,5.28
2019-06-01T15:13:39.907Z,4.87
2019-06-01T15:16:11.968Z,7.42
2019-06-01T15:18:44.560Z,9.10
2019-06-01T15:21:17.827Z,11.40
2019-06-01T15:23:51.949Z,14.30
2019-06-01T15:26:25.274Z,18.30
2019-06-01T15:28:57.136Z,16.93
2019-06-01T15:31:28.578Z,12.43
2019-06-01T15:34:01.895Z,11.83
2019-06-01T15:36:34.497Z,14.30
2019-06-01T15:39:23.476Z,10.75
2019-06-01T15:41:42.267Z,13.32
2019-06-01T15:44:14.476Z,14.13
2019-06-01T15:46:46.119Z,13.43
2019-06-01T15:49:18.408Z,9.77
2019-06-01T15:51:51.845Z,18.75
2019-06-01T15:54:23.429Z,13.33
2019-06-01T15:56:56.483Z,12.47
2019-06-01T15:59:28.506Z,17.80
2019-06-01T16:02:01.337Z,11.10
2019-06-01T16:04:35.889Z,18.30
2019-06-01T16:07:07.288Z,15.30
2019-06-01T16:09:43.016Z,13.87
2019-06-01T16:12:12.501Z,19.37
2019-06-01T16:14:44.051Z,22.27
2019-06-01T16:17:15.693Z,17.60
2019-06-01T16:19:49.392Z,21.87
2019-06-01T16:22:21.379Z,20.90
2019-06-01T16:24:54.053Z,26.13
2019-06-01T16:27:26.208Z,18.90
2019-06-01T16:30:01.275Z,22.20
2019-06-01T16:32:32.130Z,25.13
2019-06-01T16:35:05.058Z,17.67
2019-06-01T16:37:36.631Z,17.37
2019-06-01T16:40:10.534Z,18.37
2019-06-01T16:42:44.871Z,15.50
2019-06-01T16:45:18.158Z,21.83
2019-06-01T16:47:49.652Z,20.93
2019-06-01T16:50:21.838Z,20.90
2019-06-01T16:52:55.807Z,18.43
2019-06-01T16:55:27.578Z,19.70
2019-06-01T16:57:59.234Z,17.70
2019-06-01T17:00:32.027Z,19.07
2019-06-01T17:03:05.088Z,14.83
2019-06-01T17:05:37.389Z,16.20
2019-06-01T17:08:09.264Z,19.87
2019-06-01T17:10:41.200Z,19.50
2019-06-01T17:13:12.926Z,16.90
2019-06-01T17:15:45.856Z,18.47
2019-06-01T17:18:20.464Z,17.80
2019-06-01T17:20:54.210Z,16.33
2019-06-01T17:23:29.351Z,13.83
2019-06-01T17:26:00.451Z,13.90
2019-06-01T17:28:34.258Z,14.93
2019-06-01T17:31:09.096Z,15.33
2019-06-01T17:33:41.353Z,12.97
2019-06-01T17:36:13.213Z,16.00
2019-06-01T17:38:45.391Z,12.47
2019-06-01T17:41:18.775Z,16.53
2019-06-01T17:43:51.251Z,12.73
2019-06-01T17:46:22.935Z,17.10
2019-06-01T17:48:54.564Z,16.90
2019-06-01T17:51:26.465Z,16.47
2019-06-01T17:53:57.926Z,15.90
2019-06-01T17:56:29.365Z,16.37
2019-06-01T17:59:01.393Z,13.07
2019-06-01T18:01:34.390Z,15.80
2019-06-01T18:04:06.000Z,15.60
2019-06-01T18:06:37.605Z,14.80
2019-06-01T18:09:12.138Z,10.53
2019-06-01T18:11:43.863Z,23.33
2019-06-01T18:14:16.056Z,16.53
2019-06-01T18:16:47.725Z,21.23
2019-06-01T18:19:19.646Z,12.87
2019-06-01T18:21:51.363Z,19.23
2019-06-01T18:24:23.429Z,12.87
2019-06-01T18:26:55.085Z,21.07
2019-06-01T18:29:27.258Z,13.60
2019-06-01T18:32:00.178Z,24.13
2019-06-01T18:34:33.824Z,10.13
2019-06-01T18:37:05.776Z,15.53
2019-06-01T18:39:37.270Z,16.97
2019-06-01T18:42:08.750Z,12.43
2019-06-01T18:44:43.679Z,14.43
2019-06-01T18:47:31.448Z,14.30
2019-06-01T18:49:51.907Z,14.70
2019-06-01T18:52:25.617Z,13.63
2019-06-01T18:54:58.799Z,21.03
2019-06-01T18:57:36.074Z,14.80
2019-06-01T19:00:10.949Z,18.17
2019-06-01T19:02:42.064Z,20.70
2019-06-01T19:05:15.624Z,20.40
2019-06-01T19:07:47.111Z,14.83
2019-06-01T19:10:19.689Z,17.83
2019-06-01T19:12:55.240Z,15.43
2019-06-01T19:15:28.916Z,16.53
2019-06-01T19:18:00.904Z,13.23
2019-06-01T19:20:34.867Z,21.07
2019-06-01T19:23:08.690Z,22.27
2019-06-01T19:25:40.270Z,17.90
2019-06-01T19:28:13.216Z,21.10
2019-06-01T19:30:45.624Z,26.50
2019-06-01T19:33:19.289Z,20.27
2019-06-01T19:35:52.732Z,23.50
2019-06-01T19:38:24.798Z,15.30
2019-06-01T19:40:56.248Z,21.03
2019-06-01T19:43:29.641Z,24.43
2019-06-01T19:46:03.890Z,18.53
2019-06-01T19:48:38.532Z,19.53
2019-06-01T19:51:10.768Z,20.97
2019-06-01T19:53:44.354Z,47.83
2019-06-01T19:56:17.148Z,48.13
2019-06-01T19:58:50.533Z,37.13
2019-06-01T20:01:29.251Z,51.33
2019-06-01T20:04:01.115Z,44.83
2019-06-01T20:06:34.885Z,43.10
2019-06-01T20:09:07.948Z,68.37
2019-06-01T20:11:39.464Z,76.20
2019-06-01T20:14:12.195Z,45.33
2019-06-01T20:16:55.911Z,41.23
2019-06-01T20:19:29.069Z,37.90
2019-06-01T20:22:00.832Z,42.70
2019-06-01T20:24:34.433Z,30.33
2019-06-01T20:27:07.627Z,29.13
2019-06-01T20:29:40.201Z,24.93
2019-06-01T20:32:15.809Z,13.97
2019-06-01T20:34:47.614Z,13.03
2019-06-01T20:37:20.202Z,14.50
2019-06-01T20:39:54.302Z,18.70
2019-06-01T20:42:32.413Z,16.13
2019-06-01T20:45:02.213Z,22.33
2019-06-01T20:47:35.822Z,18.33
2019-06-01T20:50:10.454Z,13.87
2019-06-01T20:52:43.015Z,14.60
2019-06-01T20:55:15.290Z,13.80
2019-06-01T20:57:49.399Z,10.53
2019-06-01T21:00:23.777Z,14.33
2019-06-01T21:02:57.420Z,23.90
2019-06-01T21:05:30.405Z,21.93
2019-06-01T21:08:04.727Z,42.43
2019-06-01T21:10:37.102Z,37.93
2019-06-01T21:13:10.391Z,43.37
2019-06-01T21:15:44.052Z,42.10
2019-06-01T21:18:16.577Z,48.90
2019-06-01T21:20:50.174Z,43.73
2019-06-01T21:23:25.260Z,43.27
2019-06-01T21:25:59.149Z,35.83
2019-06-01T21:28:30.969Z,33.10
2019-06-01T21:31:03.194Z,26.97
2019-06-01T21:33:36.029Z,27.47
2019-06-01T21:36:09.220Z,18.40
2019-06-01T21:38:41.852Z,17.20
2019-06-01T21:41:17.510Z,14.23
2019-06-01T21:43:50.245Z,16.63
2019-06-01T21:46:22.289Z,12.17
2019-06-01T21:48:56.300Z,22.27
2019-06-01T21:51:33.511Z,39.37
2019-06-01T21:54:05.754Z,33.47
2019-06-01T21:56:38.432Z,27.40
2019-06-01T21:59:10.905Z,24.50
2019-06-01T22:01:44.813Z,14.13
2019-06-01T22:04:16.776Z,13.97
2019-06-01T22:06:48.739Z,22.87
2019-06-01T22:09:21.262Z,9.53
2019-06-01T22:11:53.189Z,12.20
2019-06-01T22:14:26.266Z,14.47
2019-06-01T22:17:00.994Z,8.97
2019-06-01T22:19:33.977Z,14.40
2019-06-01T22:22:06.249Z,10.03
2019-06-01T22:24:38.218Z,11.70
2019-06-01T22:27:10.698Z,12.77
2019-06-01T22:29:43.509Z,12.43
2019-06-01T22:32:15.533Z,8.93
2019-06-01T22:34:48.723Z,6.20
2019-06-01T22:37:22.222Z,9.07
2019-06-01T22:39:57.117Z,7.57
2019-06-01T22:42:29.325Z,9.77
2019-06-01T22:45:03.748Z,7.70
2019-06-01T22:47:36.529Z,9.40
2019-06-01T22:50:10.666Z,9.83
2019-06-01T22:52:43.737Z,10.93
2019-06-01T22:55:20.056Z,7.03
2019-06-01T22:57:53.077Z,9.70
2019-06-01T23:00:27.829Z,7.17
2019-06-01T23:02:59.771Z,7.17
2019-06-01T23:05:33.613Z,8.40
2019-06-01T23:08:09.613Z,10.93
2019-06-01T23:10:44.262Z,10.10
2019-06-01T23:13:16.589Z,11.40
2019-06-01T23:15:48.743Z,10.53
2019-06-01T23:18:21.720Z,6.43
2019-06-01T23:20:53.335Z,8.33
2019-06-01T23:23:28.036Z,8.07
2019-06-01T23:26:01.174Z,6.97
2019-06-01T23:28:33.631Z,7.43
2019-06-01T23:31:05.314Z,8.47
2019-06-01T23:33:38.373Z,7.53
2019-06-01T23:36:11.279Z,7.83
2019-06-01T23:38:44.964Z,6.00
2019-06-01T23:41:18.149Z,6.73
2019-06-01T23:43:49.915Z,6.43
2019-06-01T23:46:23.408Z,9.47
2019-06-01T23:48:56.406Z,11.57
2019-06-01T23:51:29.592Z,7.73
2019-06-01T23:54:02.062Z,8.23
2019-06-01T23:56:34.798Z,10.53
2019-06-01T23:59:08.399Z,11.07
